sensor_id;sensor_type;location;lat;lon;timestamp;P1;durP1;ratioP1;P2;durP2;ratioP2
16634;SDS011;8431;52.458;9.998;2022-09-14T00:01:06;5.15;;;2.20;;
16634;SDS011;8431;52.458;9.998;2022-09-14T00:03:34;8.25;;;2.90;;
16634;SDS011;8431;52.458;9.998;2022-09-14T00:06:05;5.30;;;2.30;;
16634;SDS011;8431;52.458;9.998;2022-09-14T00:08:32;4.57;;;2.33;;
16634;SDS011;8431;52.458;9.998;2022-09-14T00:11:02;4.32;;;2.55;;
16634;SDS011;8431;52.458;9.998;2022-09-14T00:13:30;6.78;;;2.50;;
16634;SDS011;8431;52.458;9.998;2022-09-14T00:16:01;4.30;;;2.47;;
16634;SDS011;8431;52.458;9.998;2022-09-14T00:18:31;2.88;;;2.20;;
16634;SDS011;8431;52.458;9.998;2022-09-14T00:20:59;4.35;;;2.20;;
16634;SDS011;8431;52.458;9.998;2022-09-14T00:23:26;4.20;;;2.60;;
16634;SDS011;8431;52.458;9.998;2022-09-14T00:25:54;5.50;;;2.42;;
16634;SDS011;8431;52.458;9.998;2022-09-14T00:28:21;3.08;;;2.33;;
16634;SDS011;8431;52.458;9.998;2022-09-14T00:30:48;4.05;;;2.40;;
16634;SDS011;8431;52.458;9.998;2022-09-14T00:33:15;5.55;;;2.78;;
16634;SDS011;8431;52.458;9.998;2022-09-14T00:35:43;3.60;;;2.30;;
16634;SDS011;8431;52.458;9.998;2022-09-14T00:38:10;4.82;;;2.60;;
16634;SDS011;8431;52.458;9.998;2022-09-14T00:40:37;3.75;;;2.92;;
16634;SDS011;8431;52.458;9.998;2022-09-14T00:43:04;3.90;;;2.33;;
16634;SDS011;8431;52.458;9.998;2022-09-14T00:45:40;6.25;;;3.00;;
16634;SDS011;8431;52.458;9.998;2022-09-14T00:48:07;4.85;;;2.55;;
16634;SDS011;8431;52.458;9.998;2022-09-14T00:50:34;5.25;;;2.53;;
16634;SDS011;8431;52.458;9.998;2022-09-14T00:53:03;3.10;;;2.70;;
16634;SDS011;8431;52.458;9.998;2022-09-14T00:55:31;4.50;;;2.78;;
16634;SDS011;8431;52.458;9.998;2022-09-14T00:57:58;4.72;;;3.17;;
16634;SDS011;8431;52.458;9.998;2022-09-14T01:00:27;6.35;;;2.65;;
16634;SDS011;8431;52.458;9.998;2022-09-14T01:02:55;7.30;;;2.85;;
16634;SDS011;8431;52.458;9.998;2022-09-14T01:05:23;7.15;;;2.85;;
16634;SDS011;8431;52.458;9.998;2022-09-14T01:11:19;7.05;;;3.25;;
16634;SDS011;8431;52.458;9.998;2022-09-14T01:14:02;3.85;;;2.53;;
16634;SDS011;8431;52.458;9.998;2022-09-14T01:16:36;7.32;;;3.30;;
16634;SDS011;8431;52.458;9.998;2022-09-14T01:19:13;6.68;;;2.78;;
16634;SDS011;8431;52.458;9.998;2022-09-14T01:21:59;4.97;;;2.92;;
16634;SDS011;8431;52.458;9.998;2022-09-14T01:24:48;9.45;;;3.17;;
16634;SDS011;8431;52.458;9.998;2022-09-14T01:27:25;6.65;;;2.70;;
16634;SDS011;8431;52.458;9.998;2022-09-14T01:30:04;5.05;;;2.65;;
16634;SDS011;8431;52.458;9.998;2022-09-14T01:32:34;6.47;;;2.95;;
16634;SDS011;8431;52.458;9.998;2022-09-14T01:35:07;6.28;;;3.13;;
16634;SDS011;8431;52.458;9.998;2022-09-14T01:37:41;5.43;;;3.00;;
16634;SDS011;8431;52.458;9.998;2022-09-14T01:40:15;5.97;;;2.55;;
16634;SDS011;8431;52.458;9.998;2022-09-14T01:42:48;5.45;;;2.75;;
16634;SDS011;8431;52.458;9.998;2022-09-14T01:45:19;5.35;;;2.78;;
16634;SDS011;8431;52.458;9.998;2022-09-14T01:47:50;5.45;;;2.40;;
16634;SDS011;8431;52.458;9.998;2022-09-14T01:50:21;4.93;;;2.75;;
16634;SDS011;8431;52.458;9.998;2022-09-14T01:52:52;3.65;;;2.65;;
16634;SDS011;8431;52.458;9.998;2022-09-14T01:55:24;6.20;;;2.90;;
16634;SDS011;8431;52.458;9.998;2022-09-14T01:57:57;5.70;;;3.30;;
16634;SDS011;8431;52.458;9.998;2022-09-14T02:00:29;6.68;;;3.00;;
16634;SDS011;8431;52.458;9.998;2022-09-14T02:02:57;7.07;;;3.10;;
16634;SDS011;8431;52.458;9.998;2022-09-14T02:05:29;6.35;;;3.20;;
16634;SDS011;8431;52.458;9.998;2022-09-14T02:07:59;4.68;;;2.97;;
16634;SDS011;8431;52.458;9.998;2022-09-14T02:10:27;4.55;;;3.03;;
16634;SDS011;8431;52.458;9.998;2022-09-14T02:12:54;5.88;;;2.92;;
16634;SDS011;8431;52.458;9.998;2022-09-14T02:15:23;7.88;;;2.97;;
16634;SDS011;8431;52.458;9.998;2022-09-14T02:17:51;4.45;;;2.78;;
16634;SDS011;8431;52.458;9.998;2022-09-14T02:20:20;4.10;;;2.67;;
16634;SDS011;8431;52.458;9.998;2022-09-14T02:22:50;4.18;;;2.35;;
16634;SDS011;8431;52.458;9.998;2022-09-14T02:25:18;4.30;;;2.33;;
16634;SDS011;8431;52.458;9.998;2022-09-14T02:27:46;5.10;;;2.70;;
16634;SDS011;8431;52.458;9.998;2022-09-14T02:30:15;2.90;;;2.15;;
16634;SDS011;8431;52.458;9.998;2022-09-14T02:32:46;3.72;;;2.45;;
16634;SDS011;8431;52.458;9.998;2022-09-14T02:35:22;2.70;;;2.50;;
16634;SDS011;8431;52.458;9.998;2022-09-14T02:37:54;3.83;;;2.70;;
16634;SDS011;8431;52.458;9.998;2022-09-14T02:40:29;4.72;;;2.58;;
16634;SDS011;8431;52.458;9.998;2022-09-14T02:43:02;4.03;;;2.45;;
16634;SDS011;8431;52.458;9.998;2022-09-14T02:45:41;6.63;;;2.60;;
16634;SDS011;8431;52.458;9.998;2022-09-14T02:48:12;4.78;;;2.85;;
16634;SDS011;8431;52.458;9.998;2022-09-14T02:50:48;4.57;;;2.85;;
16634;SDS011;8431;52.458;9.998;2022-09-14T02:53:21;7.53;;;2.92;;
16634;SDS011;8431;52.458;9.998;2022-09-14T02:55:54;5.32;;;2.85;;
16634;SDS011;8431;52.458;9.998;2022-09-14T02:58:24;7.63;;;3.15;;
16634;SDS011;8431;52.458;9.998;2022-09-14T03:01:01;3.47;;;2.78;;
16634;SDS011;8431;52.458;9.998;2022-09-14T03:03:29;5.20;;;3.28;;
16634;SDS011;8431;52.458;9.998;2022-09-14T03:05:56;5.35;;;2.63;;
16634;SDS011;8431;52.458;9.998;2022-09-14T03:08:23;4.85;;;2.78;;
16634;SDS011;8431;52.458;9.998;2022-09-14T03:10:50;7.18;;;3.05;;
16634;SDS011;8431;52.458;9.998;2022-09-14T03:13:17;7.85;;;3.35;;
16634;SDS011;8431;52.458;9.998;2022-09-14T03:15:44;6.10;;;3.42;;
16634;SDS011;8431;52.458;9.998;2022-09-14T03:18:13;4.47;;;3.08;;
16634;SDS011;8431;52.458;9.998;2022-09-14T03:20:40;9.57;;;3.45;;
16634;SDS011;8431;52.458;9.998;2022-09-14T03:23:08;8.20;;;3.33;;
16634;SDS011;8431;52.458;9.998;2022-09-14T03:25:36;8.57;;;3.28;;
16634;SDS011;8431;52.458;9.998;2022-09-14T03:28:04;4.70;;;3.08;;
16634;SDS011;8431;52.458;9.998;2022-09-14T03:30:31;4.55;;;3.50;;
16634;SDS011;8431;52.458;9.998;2022-09-14T03:32:59;6.38;;;3.08;;
16634;SDS011;8431;52.458;9.998;2022-09-14T03:35:28;4.90;;;2.95;;
16634;SDS011;8431;52.458;9.998;2022-09-14T03:37:56;4.40;;;3.17;;
16634;SDS011;8431;52.458;9.998;2022-09-14T03:40:24;4.40;;;2.90;;
16634;SDS011;8431;52.458;9.998;2022-09-14T03:42:51;4.22;;;2.50;;
16634;SDS011;8431;52.458;9.998;2022-09-14T03:45:18;7.25;;;3.17;;
16634;SDS011;8431;52.458;9.998;2022-09-14T03:47:46;7.80;;;3.05;;
16634;SDS011;8431;52.458;9.998;2022-09-14T03:50:13;5.88;;;2.92;;
16634;SDS011;8431;52.458;9.998;2022-09-14T03:52:43;4.78;;;3.20;;
16634;SDS011;8431;52.458;9.998;2022-09-14T03:55:10;7.75;;;2.58;;
16634;SDS011;8431;52.458;9.998;2022-09-14T03:57:37;7.80;;;3.58;;
16634;SDS011;8431;52.458;9.998;2022-09-14T04:00:05;7.18;;;2.80;;
16634;SDS011;8431;52.458;9.998;2022-09-14T04:02:33;4.68;;;2.88;;
16634;SDS011;8431;52.458;9.998;2022-09-14T04:05:00;5.43;;;3.28;;
16634;SDS011;8431;52.458;9.998;2022-09-14T04:07:28;3.53;;;3.22;;
16634;SDS011;8431;52.458;9.998;2022-09-14T04:09:56;3.80;;;3.28;;
16634;SDS011;8431;52.458;9.998;2022-09-14T04:12:23;6.53;;;3.10;;
16634;SDS011;8431;52.458;9.998;2022-09-14T04:14:50;4.93;;;3.33;;
16634;SDS011;8431;52.458;9.998;2022-09-14T04:17:17;3.80;;;2.75;;
16634;SDS011;8431;52.458;9.998;2022-09-14T04:19:44;6.63;;;3.25;;
16634;SDS011;8431;52.458;9.998;2022-09-14T04:22:11;2.45;;;2.22;;
16634;SDS011;8431;52.458;9.998;2022-09-14T04:24:38;5.47;;;3.05;;
16634;SDS011;8431;52.458;9.998;2022-09-14T04:27:07;6.15;;;3.13;;
16634;SDS011;8431;52.458;9.998;2022-09-14T04:29:34;7.72;;;3.15;;
16634;SDS011;8431;52.458;9.998;2022-09-14T04:32:01;5.20;;;2.30;;
16634;SDS011;8431;52.458;9.998;2022-09-14T04:34:28;6.45;;;3.38;;
16634;SDS011;8431;52.458;9.998;2022-09-14T04:36:55;3.20;;;2.65;;
16634;SDS011;8431;52.458;9.998;2022-09-14T04:39:22;6.00;;;3.20;;
16634;SDS011;8431;52.458;9.998;2022-09-14T04:41:50;3.83;;;2.97;;
16634;SDS011;8431;52.458;9.998;2022-09-14T04:44:18;6.13;;;3.38;;
16634;SDS011;8431;52.458;9.998;2022-09-14T04:46:45;3.90;;;2.70;;
16634;SDS011;8431;52.458;9.998;2022-09-14T04:49:12;7.00;;;3.13;;
16634;SDS011;8431;52.458;9.998;2022-09-14T04:51:40;7.57;;;3.10;;
16634;SDS011;8431;52.458;9.998;2022-09-14T04:54:08;4.47;;;2.47;;
16634;SDS011;8431;52.458;9.998;2022-09-14T04:56:39;4.95;;;3.15;;
16634;SDS011;8431;52.458;9.998;2022-09-14T04:59:07;5.70;;;3.45;;
16634;SDS011;8431;52.458;9.998;2022-09-14T05:01:36;7.25;;;2.70;;
16634;SDS011;8431;52.458;9.998;2022-09-14T05:04:04;3.70;;;2.88;;
16634;SDS011;8431;52.458;9.998;2022-09-14T05:06:33;3.70;;;3.05;;
16634;SDS011;8431;52.458;9.998;2022-09-14T05:09:03;8.40;;;3.03;;
16634;SDS011;8431;52.458;9.998;2022-09-14T05:11:37;5.13;;;3.38;;
16634;SDS011;8431;52.458;9.998;2022-09-14T05:14:04;6.75;;;3.35;;
16634;SDS011;8431;52.458;9.998;2022-09-14T05:16:32;4.75;;;2.85;;
16634;SDS011;8431;52.458;9.998;2022-09-14T05:19:02;3.50;;;2.97;;
16634;SDS011;8431;52.458;9.998;2022-09-14T05:21:31;5.63;;;3.70;;
16634;SDS011;8431;52.458;9.998;2022-09-14T05:24:00;5.38;;;3.20;;
16634;SDS011;8431;52.458;9.998;2022-09-14T05:26:29;11.95;;;3.70;;
16634;SDS011;8431;52.458;9.998;2022-09-14T05:28:58;4.47;;;2.83;;
16634;SDS011;8431;52.458;9.998;2022-09-14T05:31:26;9.98;;;4.00;;
16634;SDS011;8431;52.458;9.998;2022-09-14T05:33:55;5.30;;;3.63;;
16634;SDS011;8431;52.458;9.998;2022-09-14T05:36:23;5.18;;;3.65;;
16634;SDS011;8431;52.458;9.998;2022-09-14T05:38:51;5.82;;;3.33;;
16634;SDS011;8431;52.458;9.998;2022-09-14T05:41:18;7.53;;;4.22;;
16634;SDS011;8431;52.458;9.998;2022-09-14T05:43:45;8.15;;;4.30;;
16634;SDS011;8431;52.458;9.998;2022-09-14T05:46:13;7.63;;;3.83;;
16634;SDS011;8431;52.458;9.998;2022-09-14T05:48:41;5.15;;;3.63;;
16634;SDS011;8431;52.458;9.998;2022-09-14T05:51:09;6.63;;;3.72;;
16634;SDS011;8431;52.458;9.998;2022-09-14T05:53:39;6.18;;;3.95;;
16634;SDS011;8431;52.458;9.998;2022-09-14T05:56:07;7.43;;;4.28;;
16634;SDS011;8431;52.458;9.998;2022-09-14T05:58:36;10.88;;;4.95;;
16634;SDS011;8431;52.458;9.998;2022-09-14T06:01:07;7.43;;;4.47;;
16634;SDS011;8431;52.458;9.998;2022-09-14T06:03:35;6.57;;;4.50;;
16634;SDS011;8431;52.458;9.998;2022-09-14T06:06:02;7.32;;;4.50;;
16634;SDS011;8431;52.458;9.998;2022-09-14T06:08:31;7.85;;;4.30;;
16634;SDS011;8431;52.458;9.998;2022-09-14T06:11:02;11.77;;;5.15;;
16634;SDS011;8431;52.458;9.998;2022-09-14T06:13:30;12.20;;;5.55;;
16634;SDS011;8431;52.458;9.998;2022-09-14T06:16:00;10.27;;;4.93;;
16634;SDS011;8431;52.458;9.998;2022-09-14T06:18:28;8.90;;;5.00;;
16634;SDS011;8431;52.458;9.998;2022-09-14T06:20:56;8.65;;;4.97;;
16634;SDS011;8431;52.458;9.998;2022-09-14T06:23:23;9.48;;;5.07;;
16634;SDS011;8431;52.458;9.998;2022-09-14T06:25:52;10.82;;;4.75;;
16634;SDS011;8431;52.458;9.998;2022-09-14T06:28:21;11.55;;;4.30;;
16634;SDS011;8431;52.458;9.998;2022-09-14T06:30:49;10.02;;;4.25;;
16634;SDS011;8431;52.458;9.998;2022-09-14T06:33:16;13.60;;;4.53;;
16634;SDS011;8431;52.458;9.998;2022-09-14T06:35:53;6.65;;;3.95;;
16634;SDS011;8431;52.458;9.998;2022-09-14T06:38:21;10.45;;;4.70;;
16634;SDS011;8431;52.458;9.998;2022-09-14T06:40:51;9.23;;;4.03;;
16634;SDS011;8431;52.458;9.998;2022-09-14T06:43:22;7.13;;;2.80;;
16634;SDS011;8431;52.458;9.998;2022-09-14T06:45:56;8.65;;;3.80;;
16634;SDS011;8431;52.458;9.998;2022-09-14T06:48:24;7.30;;;2.90;;
16634;SDS011;8431;52.458;9.998;2022-09-14T06:50:52;4.68;;;3.08;;
16634;SDS011;8431;52.458;9.998;2022-09-14T06:53:19;7.50;;;3.03;;
16634;SDS011;8431;52.458;9.998;2022-09-14T06:55:46;4.63;;;2.72;;
16634;SDS011;8431;52.458;9.998;2022-09-14T06:58:13;9.00;;;2.72;;
16634;SDS011;8431;52.458;9.998;2022-09-14T07:00:41;5.63;;;2.75;;
16634;SDS011;8431;52.458;9.998;2022-09-14T07:03:08;8.23;;;3.00;;
16634;SDS011;8431;52.458;9.998;2022-09-14T07:05:36;5.82;;;2.97;;
16634;SDS011;8431;52.458;9.998;2022-09-14T07:08:03;8.02;;;3.55;;
16634;SDS011;8431;52.458;9.998;2022-09-14T07:10:30;5.65;;;3.20;;
16634;SDS011;8431;52.458;9.998;2022-09-14T07:12:57;5.75;;;2.80;;
16634;SDS011;8431;52.458;9.998;2022-09-14T07:15:25;4.45;;;2.70;;
16634;SDS011;8431;52.458;9.998;2022-09-14T07:17:53;5.68;;;2.97;;
16634;SDS011;8431;52.458;9.998;2022-09-14T07:20:20;4.60;;;2.63;;
16634;SDS011;8431;52.458;9.998;2022-09-14T07:22:47;6.13;;;2.90;;
16634;SDS011;8431;52.458;9.998;2022-09-14T07:25:14;4.00;;;2.55;;
16634;SDS011;8431;52.458;9.998;2022-09-14T07:27:41;5.95;;;2.83;;
16634;SDS011;8431;52.458;9.998;2022-09-14T07:30:08;10.02;;;3.30;;
16634;SDS011;8431;52.458;9.998;2022-09-14T07:32:37;4.68;;;3.35;;
16634;SDS011;8431;52.458;9.998;2022-09-14T07:35:06;7.43;;;2.83;;
16634;SDS011;8431;52.458;9.998;2022-09-14T07:37:33;4.93;;;2.90;;
16634;SDS011;8431;52.458;9.998;2022-09-14T07:40:00;5.40;;;2.47;;
16634;SDS011;8431;52.458;9.998;2022-09-14T07:42:27;4.10;;;2.50;;
16634;SDS011;8431;52.458;9.998;2022-09-14T07:44:56;3.33;;;2.53;;
16634;SDS011;8431;52.458;9.998;2022-09-14T07:47:23;5.32;;;2.60;;
16634;SDS011;8431;52.458;9.998;2022-09-14T07:49:50;6.78;;;2.75;;
16634;SDS011;8431;52.458;9.998;2022-09-14T07:52:18;3.65;;;2.85;;
16634;SDS011;8431;52.458;9.998;2022-09-14T07:54:45;5.68;;;3.00;;
16634;SDS011;8431;52.458;9.998;2022-09-14T07:57:12;9.45;;;2.90;;
16634;SDS011;8431;52.458;9.998;2022-09-14T07:59:40;4.55;;;2.67;;
16634;SDS011;8431;52.458;9.998;2022-09-14T08:02:07;5.07;;;2.42;;
16634;SDS011;8431;52.458;9.998;2022-09-14T08:04:36;4.25;;;2.35;;
16634;SDS011;8431;52.458;9.998;2022-09-14T08:07:04;8.20;;;2.65;;
16634;SDS011;8431;52.458;9.998;2022-09-14T08:09:33;5.35;;;2.97;;
16634;SDS011;8431;52.458;9.998;2022-09-14T08:12:00;4.15;;;2.85;;
16634;SDS011;8431;52.458;9.998;2022-09-14T08:14:29;6.07;;;2.67;;
16634;SDS011;8431;52.458;9.998;2022-09-14T08:16:57;6.72;;;2.30;;
16634;SDS011;8431;52.458;9.998;2022-09-14T08:19:25;8.15;;;2.88;;
16634;SDS011;8431;52.458;9.998;2022-09-14T08:21:52;4.05;;;2.45;;
16634;SDS011;8431;52.458;9.998;2022-09-14T08:24:19;9.20;;;2.70;;
16634;SDS011;8431;52.458;9.998;2022-09-14T08:26:48;5.53;;;2.58;;
16634;SDS011;8431;52.458;9.998;2022-09-14T08:29:15;6.97;;;2.30;;
16634;SDS011;8431;52.458;9.998;2022-09-14T08:31:43;9.85;;;2.60;;
16634;SDS011;8431;52.458;9.998;2022-09-14T08:34:12;7.65;;;2.25;;
16634;SDS011;8431;52.458;9.998;2022-09-14T08:36:40;6.75;;;2.72;;
16634;SDS011;8431;52.458;9.998;2022-09-14T08:39:08;9.55;;;2.40;;
16634;SDS011;8431;52.458;9.998;2022-09-14T08:41:37;6.40;;;2.20;;
16634;SDS011;8431;52.458;9.998;2022-09-14T08:44:12;7.65;;;2.10;;
16634;SDS011;8431;52.458;9.998;2022-09-14T08:46:43;9.35;;;2.35;;
16634;SDS011;8431;52.458;9.998;2022-09-14T08:49:15;6.80;;;1.90;;
16634;SDS011;8431;52.458;9.998;2022-09-14T08:51:47;8.65;;;2.33;;
16634;SDS011;8431;52.458;9.998;2022-09-14T08:54:16;6.22;;;1.50;;
16634;SDS011;8431;52.458;9.998;2022-09-14T08:56:44;8.05;;;2.28;;
16634;SDS011;8431;52.458;9.998;2022-09-14T08:59:23;3.45;;;1.45;;
16634;SDS011;8431;52.458;9.998;2022-09-14T09:02:04;6.03;;;2.50;;
16634;SDS011;8431;52.458;9.998;2022-09-14T09:04:46;4.15;;;1.55;;
16634;SDS011;8431;52.458;9.998;2022-09-14T09:07:21;4.22;;;1.60;;
16634;SDS011;8431;52.458;9.998;2022-09-14T09:09:55;4.72;;;1.70;;
16634;SDS011;8431;52.458;9.998;2022-09-14T09:12:23;5.22;;;1.77;;
16634;SDS011;8431;52.458;9.998;2022-09-14T09:15:00;5.30;;;2.03;;
16634;SDS011;8431;52.458;9.998;2022-09-14T09:17:32;7.18;;;2.20;;
16634;SDS011;8431;52.458;9.998;2022-09-14T09:20:05;6.68;;;1.85;;
16634;SDS011;8431;52.458;9.998;2022-09-14T09:22:39;4.47;;;1.77;;
16634;SDS011;8431;52.458;9.998;2022-09-14T09:25:10;7.95;;;1.73;;
16634;SDS011;8431;52.458;9.998;2022-09-14T09:27:42;6.10;;;2.17;;
16634;SDS011;8431;52.458;9.998;2022-09-14T09:30:12;3.53;;;1.73;;
16634;SDS011;8431;52.458;9.998;2022-09-14T09:32:40;6.05;;;2.15;;
16634;SDS011;8431;52.458;9.998;2022-09-14T09:35:09;5.32;;;1.65;;
16634;SDS011;8431;52.458;9.998;2022-09-14T09:37:39;6.75;;;2.10;;
16634;SDS011;8431;52.458;9.998;2022-09-14T09:40:12;5.05;;;1.88;;
16634;SDS011;8431;52.458;9.998;2022-09-14T09:45:44;5.70;;;2.03;;
16634;SDS011;8431;52.458;9.998;2022-09-14T09:48:17;5.60;;;1.77;;
16634;SDS011;8431;52.458;9.998;2022-09-14T09:50:48;3.58;;;1.58;;
16634;SDS011;8431;52.458;9.998;2022-09-14T09:53:17;5.40;;;2.00;;
16634;SDS011;8431;52.458;9.998;2022-09-14T09:55:47;6.13;;;2.03;;
16634;SDS011;8431;52.458;9.998;2022-09-14T09:58:19;6.07;;;1.70;;
16634;SDS011;8431;52.458;9.998;2022-09-14T10:00:55;6.43;;;1.77;;
16634;SDS011;8431;52.458;9.998;2022-09-14T10:03:28;7.30;;;2.10;;
16634;SDS011;8431;52.458;9.998;2022-09-14T10:06:00;5.03;;;2.22;;
16634;SDS011;8431;52.458;9.998;2022-09-14T10:08:32;4.68;;;1.63;;
16634;SDS011;8431;52.458;9.998;2022-09-14T10:11:08;6.53;;;1.92;;
16634;SDS011;8431;52.458;9.998;2022-09-14T10:13:54;4.18;;;2.15;;
16634;SDS011;8431;52.458;9.998;2022-09-14T10:16:24;7.93;;;2.08;;
16634;SDS011;8431;52.458;9.998;2022-09-14T10:18:54;5.22;;;1.80;;
16634;SDS011;8431;52.458;9.998;2022-09-14T10:21:22;4.70;;;2.00;;
16634;SDS011;8431;52.458;9.998;2022-09-14T10:24:00;8.25;;;2.25;;
16634;SDS011;8431;52.458;9.998;2022-09-14T10:26:33;3.72;;;1.60;;
16634;SDS011;8431;52.458;9.998;2022-09-14T10:29:21;3.58;;;1.90;;
16634;SDS011;8431;52.458;9.998;2022-09-14T10:31:57;6.28;;;1.90;;
16634;SDS011;8431;52.458;9.998;2022-09-14T10:34:27;4.80;;;1.98;;
16634;SDS011;8431;52.458;9.998;2022-09-14T10:36:57;6.72;;;2.00;;
16634;SDS011;8431;52.458;9.998;2022-09-14T10:39:36;7.35;;;2.00;;
16634;SDS011;8431;52.458;9.998;2022-09-14T10:42:08;5.53;;;1.80;;
16634;SDS011;8431;52.458;9.998;2022-09-14T10:44:49;4.65;;;1.55;;
16634;SDS011;8431;52.458;9.998;2022-09-14T10:47:46;3.72;;;1.75;;
16634;SDS011;8431;52.458;9.998;2022-09-14T10:50:48;5.43;;;1.90;;
16634;SDS011;8431;52.458;9.998;2022-09-14T10:53:28;2.50;;;1.63;;
16634;SDS011;8431;52.458;9.998;2022-09-14T10:56:05;1.98;;;1.40;;
16634;SDS011;8431;52.458;9.998;2022-09-14T11:01:43;3.70;;;1.50;;
16634;SDS011;8431;52.458;9.998;2022-09-14T11:04:40;2.28;;;1.50;;
16634;SDS011;8431;52.458;9.998;2022-09-14T11:07:20;6.05;;;2.10;;
16634;SDS011;8431;52.458;9.998;2022-09-14T11:09:53;5.30;;;1.80;;
16634;SDS011;8431;52.458;9.998;2022-09-14T11:12:29;4.03;;;1.85;;
16634;SDS011;8431;52.458;9.998;2022-09-14T11:15:03;4.82;;;1.75;;
16634;SDS011;8431;52.458;9.998;2022-09-14T11:18:02;3.95;;;1.60;;
16634;SDS011;8431;52.458;9.998;2022-09-14T11:20:41;6.05;;;2.10;;
16634;SDS011;8431;52.458;9.998;2022-09-14T11:23:19;3.60;;;1.88;;
16634;SDS011;8431;52.458;9.998;2022-09-14T11:25:53;7.30;;;1.85;;
16634;SDS011;8431;52.458;9.998;2022-09-14T11:28:24;1.90;;;1.50;;
16634;SDS011;8431;52.458;9.998;2022-09-14T11:30:59;6.13;;;2.10;;
16634;SDS011;8431;52.458;9.998;2022-09-14T11:33:30;3.97;;;1.92;;
16634;SDS011;8431;52.458;9.998;2022-09-14T11:36:04;3.88;;;1.60;;
16634;SDS011;8431;52.458;9.998;2022-09-14T11:38:40;3.33;;;1.70;;
16634;SDS011;8431;52.458;9.998;2022-09-14T11:41:15;4.50;;;1.63;;
16634;SDS011;8431;52.458;9.998;2022-09-14T11:43:49;5.28;;;1.95;;
16634;SDS011;8431;52.458;9.998;2022-09-14T11:46:19;6.80;;;1.80;;
16634;SDS011;8431;52.458;9.998;2022-09-14T11:48:52;2.35;;;1.40;;
16634;SDS011;8431;52.458;9.998;2022-09-14T11:51:24;2.25;;;1.40;;
16634;SDS011;8431;52.458;9.998;2022-09-14T11:53:56;6.30;;;1.98;;
16634;SDS011;8431;52.458;9.998;2022-09-14T11:56:24;2.72;;;1.30;;
16634;SDS011;8431;52.458;9.998;2022-09-14T11:58:53;6.15;;;1.92;;
16634;SDS011;8431;52.458;9.998;2022-09-14T12:01:26;4.72;;;1.80;;
16634;SDS011;8431;52.458;9.998;2022-09-14T12:04:05;2.70;;;1.50;;
16634;SDS011;8431;52.458;9.998;2022-09-14T12:09:37;3.55;;;1.70;;
16634;SDS011;8431;52.458;9.998;2022-09-14T12:14:59;2.55;;;1.70;;
16634;SDS011;8431;52.458;9.998;2022-09-14T12:17:29;4.90;;;2.08;;
16634;SDS011;8431;52.458;9.998;2022-09-14T12:25:54;8.05;;;2.03;;
16634;SDS011;8431;52.458;9.998;2022-09-14T12:28:26;5.55;;;1.52;;
16634;SDS011;8431;52.458;9.998;2022-09-14T12:31:07;2.97;;;1.50;;
16634;SDS011;8431;52.458;9.998;2022-09-14T12:33:41;3.95;;;1.65;;
16634;SDS011;8431;52.458;9.998;2022-09-14T12:36:10;3.90;;;1.58;;
16634;SDS011;8431;52.458;9.998;2022-09-14T12:39:21;6.47;;;2.05;;
16634;SDS011;8431;52.458;9.998;2022-09-14T12:44:52;3.85;;;1.60;;
16634;SDS011;8431;52.458;9.998;2022-09-14T12:47:47;4.30;;;1.52;;
16634;SDS011;8431;52.458;9.998;2022-09-14T12:50:16;6.00;;;2.10;;
16634;SDS011;8431;52.458;9.998;2022-09-14T12:55:41;4.95;;;2.03;;
16634;SDS011;8431;52.458;9.998;2022-09-14T12:58:19;3.60;;;1.50;;
16634;SDS011;8431;52.458;9.998;2022-09-14T13:01:08;2.97;;;1.55;;
16634;SDS011;8431;52.458;9.998;2022-09-14T13:03:47;5.70;;;1.92;;
16634;SDS011;8431;52.458;9.998;2022-09-14T13:06:16;4.30;;;1.80;;
16634;SDS011;8431;52.458;9.998;2022-09-14T13:08:44;4.82;;;1.52;;
16634;SDS011;8431;52.458;9.998;2022-09-14T13:11:23;3.17;;;1.73;;
16634;SDS011;8431;52.458;9.998;2022-09-14T13:13:54;3.72;;;2.00;;
16634;SDS011;8431;52.458;9.998;2022-09-14T13:16:26;4.25;;;1.80;;
16634;SDS011;8431;52.458;9.998;2022-09-14T13:19:04;4.30;;;1.63;;
16634;SDS011;8431;52.458;9.998;2022-09-14T13:21:32;4.65;;;1.52;;
16634;SDS011;8431;52.458;9.998;2022-09-14T13:23:59;2.38;;;1.50;;
16634;SDS011;8431;52.458;9.998;2022-09-14T13:26:28;4.13;;;1.55;;
16634;SDS011;8431;52.458;9.998;2022-09-14T13:28:59;3.38;;;1.73;;
16634;SDS011;8431;52.458;9.998;2022-09-14T13:31:33;4.28;;;1.85;;
16634;SDS011;8431;52.458;9.998;2022-09-14T13:34:03;3.20;;;1.70;;
16634;SDS011;8431;52.458;9.998;2022-09-14T13:36:39;4.25;;;1.70;;
16634;SDS011;8431;52.458;9.998;2022-09-14T13:39:09;5.32;;;1.38;;
16634;SDS011;8431;52.458;9.998;2022-09-14T13:41:47;2.88;;;1.33;;
16634;SDS011;8431;52.458;9.998;2022-09-14T13:44:16;5.53;;;1.92;;
16634;SDS011;8431;52.458;9.998;2022-09-14T13:46:43;2.85;;;1.30;;
16634;SDS011;8431;52.458;9.998;2022-09-14T13:49:10;3.42;;;1.80;;
16634;SDS011;8431;52.458;9.998;2022-09-14T13:51:38;5.85;;;1.88;;
16634;SDS011;8431;52.458;9.998;2022-09-14T13:54:15;4.88;;;1.95;;
16634;SDS011;8431;52.458;9.998;2022-09-14T13:56:44;6.40;;;1.92;;
16634;SDS011;8431;52.458;9.998;2022-09-14T13:59:14;4.55;;;1.80;;
16634;SDS011;8431;52.458;9.998;2022-09-14T14:01:49;5.97;;;2.63;;
16634;SDS011;8431;52.458;9.998;2022-09-14T14:04:21;3.35;;;1.75;;
16634;SDS011;8431;52.458;9.998;2022-09-14T14:07:00;4.13;;;1.70;;
16634;SDS011;8431;52.458;9.998;2022-09-14T14:09:45;2.97;;;1.50;;
16634;SDS011;8431;52.458;9.998;2022-09-14T14:12:21;2.55;;;1.30;;
16634;SDS011;8431;52.458;9.998;2022-09-14T14:14:58;4.00;;;1.50;;
16634;SDS011;8431;52.458;9.998;2022-09-14T14:17:30;3.53;;;1.65;;
16634;SDS011;8431;52.458;9.998;2022-09-14T14:22:55;2.25;;;1.50;;
16634;SDS011;8431;52.458;9.998;2022-09-14T14:25:26;5.88;;;2.22;;
16634;SDS011;8431;52.458;9.998;2022-09-14T14:27:59;3.65;;;1.73;;
16634;SDS011;8431;52.458;9.998;2022-09-14T14:30:29;5.90;;;1.55;;
16634;SDS011;8431;52.458;9.998;2022-09-14T14:32:56;5.25;;;1.70;;
16634;SDS011;8431;52.458;9.998;2022-09-14T14:35:25;5.53;;;1.70;;
16634;SDS011;8431;52.458;9.998;2022-09-14T14:37:53;4.60;;;1.70;;
16634;SDS011;8431;52.458;9.998;2022-09-14T14:40:21;8.02;;;2.17;;
16634;SDS011;8431;52.458;9.998;2022-09-14T14:42:51;5.25;;;1.70;;
16634;SDS011;8431;52.458;9.998;2022-09-14T14:45:20;6.28;;;2.30;;
16634;SDS011;8431;52.458;9.998;2022-09-14T14:47:52;4.75;;;1.90;;
16634;SDS011;8431;52.458;9.998;2022-09-14T14:50:20;3.05;;;1.73;;
16634;SDS011;8431;52.458;9.998;2022-09-14T14:52:51;3.45;;;1.80;;
16634;SDS011;8431;52.458;9.998;2022-09-14T14:55:18;5.07;;;1.60;;
16634;SDS011;8431;52.458;9.998;2022-09-14T14:57:46;6.28;;;1.92;;
16634;SDS011;8431;52.458;9.998;2022-09-14T15:00:15;4.07;;;1.70;;
16634;SDS011;8431;52.458;9.998;2022-09-14T15:02:44;7.05;;;2.25;;
16634;SDS011;8431;52.458;9.998;2022-09-14T15:05:12;7.95;;;2.60;;
16634;SDS011;8431;52.458;9.998;2022-09-14T15:07:40;5.82;;;2.00;;
16634;SDS011;8431;52.458;9.998;2022-09-14T15:10:07;5.50;;;2.22;;
16634;SDS011;8431;52.458;9.998;2022-09-14T15:12:37;3.28;;;1.77;;
16634;SDS011;8431;52.458;9.998;2022-09-14T15:15:05;4.47;;;1.90;;
16634;SDS011;8431;52.458;9.998;2022-09-14T15:17:36;6.40;;;2.38;;
16634;SDS011;8431;52.458;9.998;2022-09-14T15:20:03;3.50;;;1.50;;
16634;SDS011;8431;52.458;9.998;2022-09-14T15:22:33;6.13;;;1.85;;
16634;SDS011;8431;52.458;9.998;2022-09-14T15:25:00;5.75;;;2.25;;
16634;SDS011;8431;52.458;9.998;2022-09-14T15:27:27;5.35;;;1.63;;
16634;SDS011;8431;52.458;9.998;2022-09-14T15:29:54;6.43;;;2.05;;
16634;SDS011;8431;52.458;9.998;2022-09-14T15:32:21;5.13;;;1.92;;
16634;SDS011;8431;52.458;9.998;2022-09-14T15:34:48;5.20;;;2.00;;
16634;SDS011;8431;52.458;9.998;2022-09-14T15:37:17;6.57;;;2.35;;
16634;SDS011;8431;52.458;9.998;2022-09-14T15:39:45;6.00;;;2.03;;
16634;SDS011;8431;52.458;9.998;2022-09-14T15:42:15;3.67;;;1.77;;
16634;SDS011;8431;52.458;9.998;2022-09-14T15:44:42;3.28;;;1.90;;
16634;SDS011;8431;52.458;9.998;2022-09-14T15:47:09;7.78;;;2.05;;
16634;SDS011;8431;52.458;9.998;2022-09-14T15:49:39;4.82;;;2.00;;
16634;SDS011;8431;52.458;9.998;2022-09-14T15:52:07;8.38;;;1.75;;